ETIC 192356Z AUTO 00000KT 9999 CLR 15/15 A3018 RMK AO2 SLP208 60000 T01510146 10251 20148 58011 $ ETIC 192256Z AUTO 00000KT 9999 CLR 15/15 A3019 RMK AO2 RAE22DZB22E25 SLP211 P0000 T01540148 $ ETIC 192225Z AUTO 00000KT 9999 SCT055 16/15 A3018 RMK AO2 RAE22DZB22E25 PRESFR SLP208 $ ETIC 192156Z AUTO 17005KT 9999 -RA OVC085 16/15 A3022 RMK AO2 TSE05 SLP222 P0000 T01550149 402820071 $ ETIC 192105Z AUTO 22006KT 9999 VCTS RA OVC080 16/14 A3022 RMK AO2 TSE05 SLP223 $ ETIC 192056Z AUTO 27005KT 9999 -TSRA BKN080 BKN095 16/14 A3021 RMK AO2 PK WND 31031/1959 DZB07E21RAB21 TSB28E43TSB48 SLP220 P0000 60000 T01640142 53033 $ ETIC 192048Z AUTO 29006G15KT 9999 -TSRA BKN075 BKN095 17/14 A3020 RMK AO2 DZB07E21RAB21 TSB28E43TSB48 SLP217 $ ETIC 192043Z AUTO 32006G16KT 9999 VCTS -RA SCT075 BKN095 17/14 A3019 RMK AO2 DZB07E21RAB21 TSB28E43 SLP213 $ ETIC 192028Z AUTO 32010G19KT 9999 -TSRA BKN070 BKN120 18/14 A3019 RMK AO2 DZB07E21RAB21 TSB28 SLP213 $ ETIC 192007Z AUTO 31019G31KT 9999 -DZ BKN060 OVC095 20/12 A3018 RMK AO2 LTG DSNT NW DZB07 SLP208 $ ETIC 191956Z AUTO 31030G35KT 9999 SCT060 SCT070 BKN095 BKN140 21/11 A3018 RMK AO2 DZB36E43 PRESRR SLP208 P0000 T02090112 $ ETIC 191943Z AUTO 30009G22KT 9999 FEW100 SCT140 20/14 A3013 RMK AO2 LTG DSNT W DZB36E43 PRESRR SLP193 $ ETIC 191936Z AUTO 00000KT 9999 -DZ FEW140 21/14 A3011 RMK AO2 LTG DSNT W DZB36 SLP184 $ ETIC 191856Z AUTO 00000KT 9999 CLR 23/13 A3011 RMK AO2 SLP184 T02280127 $ ETIC 191756Z AUTO 15004KT 9999 CLR 25/12 A3011 RMK AO2 SLP184 T02520121 10282 20252 53001 $ ETIC 191656Z AUTO 16005KT 9999 CLR 27/11 A3010 RMK AO2 SLP184 T02710111 $ ETIC 191556Z AUTO 15005KT 9999 CLR 27/10 A3009 RMK AO2 SLP183 T02710103 $ ETIC 191456Z AUTO 16006KT 9999 CLR 28/10 A3010 RMK AO2 SLP184 T02810098 57014 $ ETIC 191356Z AUTO 18008KT 9999 M 28/08 A3013 RMK AO2 SLP193 T02790082 $ ETIC 191341Z AUTO 18004KT 9999 M M A3013 RMK AO2 SLPNO ALSTG ESTMD $ ETIC 191326Z AUTO 21005KT 6000 HZ CLR 28/09 A3013 RMK AO2 SLP193 $ ETIC 191311Z AUTO 18005KT 9000 HZ CLR 27/09 A3014 RMK AO2 SLP198 $ ETIC 191256Z AUTO 25003KT 6000 HZ CLR 27/09 A3014 RMK AO2 SLP198 T02710090 $ ETIC 191241Z AUTO 15006KT 9999 FEW180 27/09 A3014 RMK AO2 SLP196 $ ETIC 191226Z AUTO 23005KT 5000 HZ FEW180 27/08 A3014 RMK AO2 SLP196 $ ETIC 191156Z AUTO 11003KT 9999 FEW160 26/09 A3015 RMK AO2 SLP200 T02590092 10260 20141 57015 $ ETIC 191056Z AUTO 13005KT 9999 CLR 25/09 A3017 RMK AO2 SLP208 T02470094 $ ETIC 190956Z AUTO 17006KT 9999 CLR 23/09 A3018 RMK AO2 SLP212 T02330093 $ ETIC 190856Z AUTO 12005KT 9999 M 21/09 A3019 RMK AO2 SLP215 T02140090 57008 $ ETIC 190756Z AUTO 11003KT 9999 CLR 19/09 A3020 RMK AO2 SLP218 T01920091 ETIC 190656Z AUTO 08003KT 9999 CLR 17/09 A3021 RMK AO2 SLP220 T01710085 ETIC 190556Z AUTO 08003KT 9999 CLR 14/09 A3022 RMK AO2 SLP225 T01400092 10140 20071 53002 ETIC 190456Z AUTO 00000KT 9999 CLR 09/08 A3021 RMK AO2 SLP225 T00900076 ETIC 190356Z AUTO 00000KT 9999 CLR 07/06 A3021 RMK AO2 SLP227 T00720061 ETIC 190256Z AUTO 00000KT 9999 CLR 08/07 A3021 RMK AO2 SLP225 T00780070 57005 ETIC 190156Z AUTO 00000KT 9999 CLR 09/08 A3022 RMK AO2 SLP227 T00940083 ETIC 190056Z AUTO 00000KT 9999 CLR 10/08 A3022 RMK AO2 SLP227 T00950083 ETIC 182356Z AUTO 00000KT 9999 CLR 11/09 A3023 RMK AO2 SLP230 T01110090 10222 20105 58003 ETIC 182256Z AUTO 00000KT 9999 CLR 12/09 A3023 RMK AO2 SLP230 T01200092 ETIC 182156Z AUTO 00000KT 9999 CLR 13/09 A3024 RMK AO2 SLP234 T01310090 402560083 ETIC 182056Z AUTO 00000KT 9999 CLR 15/10 A3024 RMK AO2 SLP232 T01450095 52009 ETIC 181956Z AUTO 00000KT 9999 CLR 18/09 A3023 RMK AO2 SLP229 T01800085 ETIC 181926Z AUTO 00000KT 9999 CLR 19/09 A3023 RMK AO2 SLP229 ETIC 181856Z AUTO 09003KT 4000 HZ CLR 20/09 A3022 RMK AO2 VIS 4000V9999 SLP225 T02020088 ETIC 181756Z AUTO 00000KT 9999 CLR 22/10 A3021 RMK AO2 SLP222 T02230101 10256 20219 58002 ETIC 181656Z AUTO 13003KT 6000 HZ CLR 24/11 A3021 RMK AO2 SLP222 T02350105 ETIC 181626Z AUTO 18003KT 8000 HZ CLR 23/11 A3021 RMK AO2 SLP224 ETIC 181556Z AUTO 14004KT 6000 HZ CLR 22/11 A3021 RMK AO2 SLP225 T02200108 ETIC 181456Z AUTO 12004KT 5000 HZ SCT070 BKN080 24/10 A3021 RMK AO2 SLP224 T02420097 57007 ETIC 181356Z AUTO 12004KT 5000 HZ SCT075 25/11 A3022 RMK AO2 SLP227 T02470105 ETIC 181311Z AUTO 00000KT 6000 HZ FEW060 24/10 A3023 RMK AO2 SLP232 ETIC 181256Z AUTO 00000KT 9999 CLR 23/10 A3023 RMK AO2 SLP232 T02310102

METAR Messwerte "GRAFENWOEHR" ETIC

Zurück zur Übersicht

Ortsname
Ländercode / m ü. NN
Zeit Temperatur Taupunkt Rel.
Luftfeuchte
Luftdruck:
Altimeter
NN
Station
Wind in Beaufort
(Knoten)
Sichtweite
(Meter)
Wolken
(Meter über Grund)
Wettererscheinung
GRAFENWOEHR
DE 414
Fr 20.05. 01:561515100 %1022
1022
973
Windstill>= 10000  
GRAFENWOEHR
DE 414
Fr 20.05. 00:561515100 %1022
1022
973
Windstill>= 10000  
GRAFENWOEHR
DE 414
Fr 20.05. 00:25161594 %1022
1022
973
Windstill>= 10000Wolkig (1700) 
GRAFENWOEHR
DE 414
Do 19.05. 23:56161594 %1023
1023
974
S 2 (5)>= 10000Bedeckt (2600)Regen (schwach)
GRAFENWOEHR
DE 414
Do 19.05. 23:05161488 %1023
1023
974
SW 2 (6)>= 10000Bedeckt (2400)Gewitter mit Regen in der Nähe
GRAFENWOEHR
DE 414
Do 19.05. 22:56161488 %1023
1023
974
W 2 (5)>= 10000Stark bewölkt (2900)
Stark bewölkt (2400)
Gewitter mit Regen (schwach)
GRAFENWOEHR
DE 414
Do 19.05. 22:48171482 %1023
1023
974
WNW 2 (6) - 4 (15)>= 10000Stark bewölkt (2900)
Stark bewölkt (2300)
Gewitter mit Regen (schwach)
GRAFENWOEHR
DE 414
Do 19.05. 22:43171482 %1022
1022
973
NW 2 (6) - 5 (16)>= 10000Stark bewölkt (2900)
Wolkig (2300)
Regen (schwach)
GRAFENWOEHR
DE 414
Do 19.05. 22:28181477 %1022
1022
973
NW 3 (10) - 5 (19)>= 10000Stark bewölkt (3700)
Stark bewölkt (2100)
Gewitter mit Regen (schwach)
GRAFENWOEHR
DE 414
Do 19.05. 22:07201260 %1022
1021
973
NW 5 (19) - 7 (31)>= 10000Bedeckt (2900)
Stark bewölkt (1800)
Nieselregen (schwach)
GRAFENWOEHR
DE 414
Do 19.05. 21:56211153 %1022
1021
973
NW 7 (30) - 8 (35)>= 10000Stark bewölkt (4300)
Stark bewölkt (2900)
Wolkig (2100)
Wolkig (1800)
 
GRAFENWOEHR
DE 414
Do 19.05. 21:43201468 %1020
1019
971
WNW 3 (9) - 6 (22)>= 10000Wolkig (4300)
Leicht bewölkt (3000)
 
GRAFENWOEHR
DE 414
Do 19.05. 21:36211464 %1020
1019
971
Windstill>= 10000Leicht bewölkt (4300)Nieselregen (schwach)
GRAFENWOEHR
DE 414
Do 19.05. 20:56231353 %1020
1019
971
Windstill>= 10000  
GRAFENWOEHR
DE 414
Do 19.05. 19:56251244 %1020
1018
971
SSO 2 (4)>= 10000  
GRAFENWOEHR
DE 414
Do 19.05. 18:56271137 %1019
1017
970
SSO 2 (5)>= 10000  
GRAFENWOEHR
DE 414
Do 19.05. 17:56271034 %1019
1017
970
SSO 2 (5)>= 10000  
GRAFENWOEHR
DE 414
Do 19.05. 16:56281032 %1019
1017
970
SSO 2 (6)>= 10000  
GRAFENWOEHR
DE 414
Do 19.05. 15:5628828 %1020
1018
971
S 3 (8)>= 10000  
GRAFENWOEHR
DE 414
Do 19.05. 15:41    %1020
 
 
S 2 (4)>= 10000  
GRAFENWOEHR
DE 414
Do 19.05. 15:2628930 %1020
1018
971
SSW 2 (5)6000 Dunst
GRAFENWOEHR
DE 414
Do 19.05. 15:1127932 %1021
1019
972
S 2 (5)9000 Dunst
GRAFENWOEHR
DE 414
Do 19.05. 14:5627932 %1021
1019
972
WSW 2 (3)6000 Dunst
GRAFENWOEHR
DE 414
Do 19.05. 14:4127932 %1021
1019
972
SSO 2 (6)>= 10000Leicht bewölkt (5500) 
GRAFENWOEHR
DE 414
Do 19.05. 14:2627830 %1021
1019
972
SW 2 (5)5000Leicht bewölkt (5500)Dunst
GRAFENWOEHR
DE 414
Do 19.05. 13:5626934 %1021
1019
972
OSO 2 (3)>= 10000Leicht bewölkt (4900) 
GRAFENWOEHR
DE 414
Do 19.05. 12:5625936 %1022
1020
973
SO 2 (5)>= 10000  
GRAFENWOEHR
DE 414
Do 19.05. 11:5623941 %1022
1021
973
S 2 (6)>= 10000  
GRAFENWOEHR
DE 414
Do 19.05. 10:5621946 %1022
1021
973
OSO 2 (5)>= 10000  
GRAFENWOEHR
DE 414
Do 19.05. 09:5619952 %1023
1022
974
OSO 2 (3)>= 10000  
GRAFENWOEHR
DE 414
Do 19.05. 08:5617959 %1023
1023
974
O 2 (3)>= 10000  
GRAFENWOEHR
DE 414
Do 19.05. 07:5614972 %1023
1023
974
O 2 (3)>= 10000  
GRAFENWOEHR
DE 414
Do 19.05. 06:569893 %1023
1024
974
Windstill>= 10000  
GRAFENWOEHR
DE 414
Do 19.05. 05:567693 %1023
1025
974
Windstill>= 10000  
GRAFENWOEHR
DE 414
Do 19.05. 04:568793 %1023
1024
974
Windstill>= 10000  
GRAFENWOEHR
DE 414
Do 19.05. 03:569893 %1023
1024
974
Windstill>= 10000  
GRAFENWOEHR
DE 414
Do 19.05. 02:5610887 %1023
1024
974
Windstill>= 10000  
GRAFENWOEHR
DE 414
Do 19.05. 01:5611987 %1024
1025
975
Windstill>= 10000  
GRAFENWOEHR
DE 414
Do 19.05. 00:5612982 %1024
1025
975
Windstill>= 10000  
GRAFENWOEHR
DE 414
Mi 18.05. 23:5613977 %1024
1024
975
Windstill>= 10000  
GRAFENWOEHR
DE 414
Mi 18.05. 22:56151072 %1024
1024
975
Windstill>= 10000  
GRAFENWOEHR
DE 414
Mi 18.05. 21:5618956 %1024
1024
975
Windstill>= 10000  
GRAFENWOEHR
DE 414
Mi 18.05. 21:2619952 %1024
1023
975
Windstill>= 10000  
GRAFENWOEHR
DE 414
Mi 18.05. 20:5620949 %1023
1022
974
O 2 (3)4000 Dunst
GRAFENWOEHR
DE 414
Mi 18.05. 19:56221046 %1023
1022
974
Windstill>= 10000  
GRAFENWOEHR
DE 414
Mi 18.05. 18:56241144 %1023
1022
974
SO 2 (3)6000 Dunst
GRAFENWOEHR
DE 414
Mi 18.05. 18:26231147 %1023
1022
974
S 2 (3)8000 Dunst
GRAFENWOEHR
DE 414
Mi 18.05. 17:56221150 %1023
1022
974
SO 2 (4)6000 Dunst
GRAFENWOEHR
DE 414
Mi 18.05. 16:56241041 %1023
1022
974
OSO 2 (4)5000Stark bewölkt (2400)
Wolkig (2100)
Dunst
GRAFENWOEHR
DE 414
Mi 18.05. 15:56251141 %1023
1021
974
OSO 2 (4)5000Wolkig (2300)Dunst
GRAFENWOEHR
DE 414
Mi 18.05. 15:11241041 %1024
1023
975
Windstill6000Leicht bewölkt (1800)Dunst
GRAFENWOEHR
DE 414
Mi 18.05. 14:56231044 %1024
1023
975
Windstill>= 10000  

Altimeter: Einstellung am Altimeter (Höhenmesser), die Höhe 0 muss auf diesen Luftdruckwert zeigen, damit das Gerät die Stationshöhe richtig anzeigt.

NN: Luftdruck reduziert auf "Normal Null", auf Meereshöhe, dieser von der Temperatur abhängige Wert wird bisweilen unkorrekt einfach als "Luftdruck" bezeichnet. Eigentlich nur eine fiktive Größe, die es erlaubt, Stationen auf unterschiedlichen Höhen miteinander zu vergleichen.

Station: Realer Luftdruck an der Station.